createdAt,value
2022-11-03T00:02:17.416Z,13.17
2022-11-03T00:04:46.436Z,13.22
2022-11-03T00:07:22.655Z,13.15
2022-11-03T00:09:51.574Z,13.13
2022-11-03T00:12:21.395Z,13.05
2022-11-03T00:14:50.344Z,13.07
2022-11-03T00:17:19.522Z,13.00
2022-11-03T00:22:59.476Z,12.95
2022-11-03T00:25:28.554Z,12.96
2022-11-03T00:28:00.562Z,12.87
2022-11-03T00:30:29.424Z,12.91
2022-11-03T00:33:00.227Z,12.92
2022-11-03T00:35:29.209Z,13.06
2022-11-03T00:37:59.915Z,13.03
2022-11-03T00:40:29.133Z,13.12
2022-11-03T00:42:58.583Z,13.16
2022-11-03T00:45:27.942Z,13.18
2022-11-03T00:48:15.714Z,13.17
2022-11-03T00:50:44.750Z,13.09
2022-11-03T00:53:16.297Z,13.14
2022-11-03T00:55:51.044Z,13.14
2022-11-03T00:58:20.221Z,13.16
2022-11-03T01:00:49.381Z,13.18
2022-11-03T01:03:18.513Z,13.17
2022-11-03T01:06:05.131Z,13.16
2022-11-03T01:08:36.094Z,13.16
2022-11-03T01:11:27.307Z,12.91
2022-11-03T01:13:56.894Z,13.13
2022-11-03T01:16:26.106Z,13.17
2022-11-03T01:18:55.450Z,13.19
2022-11-03T01:21:25.043Z,13.24
2022-11-03T01:25:09.077Z,12.98
2022-11-03T01:27:41.427Z,13.29
2022-11-03T01:30:11.217Z,13.36
2022-11-03T01:32:40.429Z,13.40
2022-11-03T01:35:10.298Z,13.41
2022-11-03T01:37:39.341Z,13.39
2022-11-03T01:40:10.657Z,13.44
2022-11-03T01:42:41.110Z,13.44
2022-11-03T01:45:10.972Z,13.44
2022-11-03T01:47:40.280Z,13.48
2022-11-03T01:50:11.751Z,13.50
2022-11-03T01:52:43.830Z,13.44
2022-11-03T01:55:15.970Z,13.46
2022-11-03T01:57:50.526Z,13.49
2022-11-03T02:00:19.613Z,13.46
2022-11-03T02:02:52.342Z,13.50
2022-11-03T02:05:23.640Z,13.50
2022-11-03T02:07:56.228Z,13.55
2022-11-03T02:10:26.309Z,13.50
2022-11-03T02:12:56.913Z,13.40
2022-11-03T02:15:26.202Z,13.41
2022-11-03T02:17:56.503Z,13.40
2022-11-03T02:20:26.971Z,13.32
2022-11-03T02:23:15.166Z,13.33
2022-11-03T02:25:47.296Z,13.33
2022-11-03T02:28:18.852Z,13.30
2022-11-03T02:30:52.156Z,13.25
2022-11-03T02:33:30.246Z,13.15
2022-11-03T02:36:01.196Z,13.17
2022-11-03T02:38:30.895Z,13.17
2022-11-03T02:41:02.750Z,13.10
2022-11-03T02:43:31.803Z,13.13
2022-11-03T02:46:00.613Z,13.19
2022-11-03T02:48:29.754Z,13.25
2022-11-03T02:50:58.696Z,13.20
2022-11-03T02:53:29.016Z,13.10
2022-11-03T02:56:04.451Z,13.13
2022-11-03T02:58:39.078Z,13.02
2022-11-03T03:01:15.229Z,12.99
2022-11-03T03:03:48.314Z,12.93
2022-11-03T03:06:20.607Z,12.86
2022-11-03T03:08:52.576Z,12.87
2022-11-03T03:11:38.025Z,12.60
2022-11-03T03:14:12.423Z,12.52
2022-11-03T03:16:47.908Z,12.51
2022-11-03T03:19:24.782Z,12.31
2022-11-03T03:21:55.705Z,12.35
2022-11-03T03:24:30.458Z,12.44
2022-11-03T03:27:02.417Z,12.43
2022-11-03T03:29:34.806Z,12.49
2022-11-03T03:32:06.317Z,12.26
2022-11-03T03:34:36.435Z,12.25
2022-11-03T03:37:06.562Z,12.24
2022-11-03T03:39:37.740Z,12.22
2022-11-03T03:42:08.992Z,12.23
2022-11-03T03:44:38.087Z,12.18
2022-11-03T03:47:15.914Z,12.28
2022-11-03T03:49:44.789Z,12.23
2022-11-03T03:52:14.131Z,12.26
2022-11-03T03:54:42.644Z,12.26
2022-11-03T03:57:15.828Z,12.25
2022-11-03T03:59:44.300Z,12.29
2022-11-03T04:02:13.892Z,12.16
2022-11-03T04:04:42.605Z,12.18
2022-11-03T04:07:31.026Z,12.17
2022-11-03T04:09:59.848Z,12.13
2022-11-03T04:12:47.372Z,12.14
2022-11-03T04:15:33.035Z,12.24
2022-11-03T04:18:18.657Z,12.22
2022-11-03T04:21:04.415Z,12.20
2022-11-03T04:23:32.809Z,12.22
2022-11-03T04:26:02.576Z,12.17
2022-11-03T04:28:32.511Z,12.07
2022-11-03T04:31:01.040Z,12.09
2022-11-03T04:33:30.719Z,12.20
2022-11-03T04:36:00.212Z,12.21
2022-11-03T04:38:29.610Z,12.19
2022-11-03T04:40:59.850Z,12.21
2022-11-03T04:43:34.692Z,12.26
2022-11-03T04:46:03.524Z,12.27
2022-11-03T04:48:32.402Z,12.29
2022-11-03T04:51:02.689Z,12.29
2022-11-03T04:53:34.525Z,12.31
2022-11-03T04:56:07.418Z,12.30
2022-11-03T04:58:38.020Z,12.32
2022-11-03T05:01:12.041Z,12.31
2022-11-03T05:03:42.425Z,12.30
2022-11-03T05:06:13.991Z,12.28
2022-11-03T05:08:45.075Z,12.26
2022-11-03T05:11:21.791Z,12.30
2022-11-03T05:13:52.498Z,12.21
2022-11-03T05:16:21.963Z,12.12
2022-11-03T05:18:51.522Z,12.20
2022-11-03T05:21:21.889Z,12.19
2022-11-03T05:23:53.674Z,12.15
2022-11-03T05:26:26.882Z,12.11
2022-11-03T05:28:59.986Z,12.12
2022-11-03T05:31:31.571Z,12.24
2022-11-03T05:34:02.878Z,12.26
2022-11-03T05:36:33.560Z,12.23
2022-11-03T05:39:26.909Z,12.26
2022-11-03T05:41:56.301Z,12.25
2022-11-03T05:44:31.389Z,12.17
2022-11-03T05:47:03.150Z,12.12
2022-11-03T05:49:41.042Z,12.14
2022-11-03T05:56:16.010Z,12.10
2022-11-03T05:58:49.298Z,11.98
2022-11-03T06:01:26.026Z,11.90
2022-11-03T06:03:56.660Z,11.85
2022-11-03T06:06:32.227Z,11.87
2022-11-03T06:09:04.422Z,11.84
2022-11-03T06:11:39.211Z,11.84
2022-11-03T06:14:18.646Z,11.78
2022-11-03T06:16:53.816Z,11.88
2022-11-03T06:19:25.169Z,11.87
2022-11-03T06:21:56.115Z,11.92
2022-11-03T06:24:31.324Z,12.04
2022-11-03T06:27:00.406Z,12.01
2022-11-03T06:29:33.000Z,12.00
2022-11-03T06:32:03.854Z,12.09
2022-11-03T06:34:39.590Z,12.06
2022-11-03T06:37:20.122Z,12.13
2022-11-03T06:39:49.850Z,12.20
2022-11-03T06:42:22.690Z,12.18
2022-11-03T06:44:54.603Z,12.19
2022-11-03T06:47:26.665Z,12.24
2022-11-03T06:50:02.851Z,12.08
2022-11-03T06:52:36.782Z,12.17
2022-11-03T06:55:24.606Z,12.30
2022-11-03T06:57:56.935Z,12.30
2022-11-03T07:00:40.326Z,12.37
2022-11-03T07:03:16.250Z,12.48
2022-11-03T07:05:46.470Z,12.58
2022-11-03T07:08:21.723Z,12.48
2022-11-03T07:10:51.696Z,12.55
2022-11-03T07:13:25.732Z,12.65
2022-11-03T07:15:56.921Z,12.43
2022-11-03T07:18:30.110Z,12.52
2022-11-03T07:21:00.741Z,12.63
2022-11-03T07:23:32.315Z,12.74
2022-11-03T07:26:02.615Z,12.82
2022-11-03T07:28:35.806Z,12.82
2022-11-03T07:31:16.393Z,12.91
2022-11-03T07:33:48.111Z,13.03
2022-11-03T07:36:19.909Z,13.13
2022-11-03T07:38:53.258Z,13.15
2022-11-03T07:41:28.111Z,13.26
2022-11-03T07:44:02.196Z,13.26
2022-11-03T07:46:31.240Z,13.36
2022-11-03T07:49:03.699Z,13.71
2022-11-03T07:51:34.167Z,13.65
2022-11-03T07:54:07.487Z,13.73
2022-11-03T07:56:43.504Z,13.67
2022-11-03T07:59:16.880Z,14.00
2022-11-03T08:01:49.060Z,14.17
2022-11-03T08:04:22.248Z,14.56
2022-11-03T08:06:53.260Z,14.79
2022-11-03T08:09:24.747Z,14.95
2022-11-03T08:11:53.759Z,15.18
2022-11-03T08:14:22.876Z,15.32
2022-11-03T08:16:55.946Z,15.47
2022-11-03T08:19:26.219Z,15.40
2022-11-03T08:21:56.448Z,15.55
2022-11-03T08:25:15.005Z,15.96
2022-11-03T08:27:43.836Z,15.69
2022-11-03T08:30:32.452Z,15.86
2022-11-03T08:43:33.540Z,15.95
2022-11-03T08:46:18.872Z,15.98
2022-11-03T08:52:35.360Z,16.23
2022-11-03T08:58:41.543Z,15.75
2022-11-03T09:01:43.808Z,16.04
2022-11-03T09:14:39.728Z,15.82
2022-11-03T09:17:09.971Z,15.56
2022-11-03T09:29:02.520Z,16.25
2022-11-03T09:37:45.935Z,16.32
2022-11-03T09:40:16.417Z,16.33
2022-11-03T09:42:45.384Z,16.14
2022-11-03T09:45:13.809Z,16.20
2022-11-03T09:47:45.038Z,16.17
2022-11-03T09:50:17.419Z,16.56
2022-11-03T09:52:51.566Z,16.44
2022-11-03T09:55:25.342Z,16.47
2022-11-03T09:57:54.059Z,16.45
2022-11-03T10:00:24.802Z,16.53
2022-11-03T10:02:53.327Z,16.43
2022-11-03T10:05:25.345Z,16.49
2022-11-03T10:07:59.413Z,16.20
2022-11-03T10:16:54.206Z,16.29
2022-11-03T10:19:22.734Z,16.58
2022-11-03T10:21:52.523Z,16.82
2022-11-03T10:24:23.358Z,16.97
2022-11-03T10:26:54.796Z,17.04
2022-11-03T10:29:24.713Z,16.85
2022-11-03T10:31:54.521Z,16.80
2022-11-03T10:34:29.644Z,16.87
2022-11-03T10:40:47.726Z,17.17
2022-11-03T10:43:17.017Z,17.20
2022-11-03T10:45:45.383Z,17.69
2022-11-03T10:48:13.740Z,17.21
2022-11-03T10:50:43.801Z,17.12
2022-11-03T10:53:17.984Z,16.63
2022-11-03T11:21:48.627Z,16.89
2022-11-03T11:25:01.729Z,16.89
2022-11-03T11:28:00.399Z,16.91
2022-11-03T11:33:36.511Z,17.39
2022-11-03T11:39:14.836Z,17.68
2022-11-03T11:45:03.593Z,17.87
2022-11-03T11:50:39.717Z,19.11
2022-11-03T11:53:31.500Z,19.56
2022-11-03T11:56:01.270Z,19.83
2022-11-03T11:58:37.509Z,19.65
2022-11-03T12:01:22.168Z,19.45
2022-11-03T12:03:51.229Z,19.74
2022-11-03T12:06:33.909Z,19.69
2022-11-03T12:09:08.053Z,19.87
2022-11-03T12:11:45.921Z,19.50
2022-11-03T12:14:34.991Z,19.88
2022-11-03T12:17:35.714Z,19.54
2022-11-03T12:20:44.922Z,19.20
2022-11-03T12:23:13.238Z,19.04
2022-11-03T12:25:41.801Z,18.76
2022-11-03T12:28:10.345Z,18.64
2022-11-03T12:30:40.189Z,18.68
2022-11-03T12:33:10.842Z,18.40
2022-11-03T12:35:40.688Z,18.24
2022-11-03T12:38:08.979Z,18.11
2022-11-03T12:40:37.414Z,17.95
2022-11-03T12:43:06.085Z,17.87
2022-11-03T12:45:34.582Z,17.42
2022-11-03T12:48:02.928Z,17.28
2022-11-03T12:50:31.184Z,17.20
2022-11-03T12:53:00.943Z,17.11
2022-11-03T12:55:29.258Z,17.13
2022-11-03T12:57:57.602Z,16.97
2022-11-03T13:00:25.888Z,17.16
2022-11-03T13:02:54.643Z,17.19
2022-11-03T13:05:23.222Z,17.23
2022-11-03T13:07:51.524Z,17.27
2022-11-03T13:10:21.333Z,17.20
2022-11-03T13:12:49.815Z,17.31
2022-11-03T13:15:18.464Z,17.25
2022-11-03T13:20:35.951Z,17.48
2022-11-03T13:23:05.375Z,17.61
2022-11-03T13:25:35.540Z,17.61
2022-11-03T13:28:04.303Z,17.56
2022-11-03T13:30:33.931Z,17.31
2022-11-03T13:33:02.292Z,17.30
2022-11-03T13:35:30.689Z,17.18
2022-11-03T13:38:05.109Z,16.97
2022-11-03T13:40:55.473Z,16.89
2022-11-03T13:43:23.297Z,17.00
2022-11-03T13:45:53.050Z,16.89
2022-11-03T13:49:19.970Z,16.75
2022-11-03T13:51:12.329Z,16.65
2022-11-03T13:56:32.080Z,16.46
2022-11-03T15:01:27.256Z,15.59
2022-11-03T15:03:57.845Z,15.17
2022-11-03T15:06:27.842Z,15.04
2022-11-03T15:08:57.002Z,14.94
2022-11-03T15:11:26.278Z,14.91
2022-11-03T15:13:55.933Z,14.93
2022-11-03T15:16:25.355Z,14.72
2022-11-03T15:18:54.793Z,14.74
2022-11-03T15:21:25.763Z,14.49
2022-11-03T15:28:22.444Z,14.48
2022-11-03T15:30:51.598Z,14.45
2022-11-03T15:33:21.294Z,14.31
2022-11-03T15:35:50.719Z,14.29
2022-11-03T15:38:21.318Z,14.38
2022-11-03T15:40:50.684Z,14.19
2022-11-03T15:43:20.513Z,14.23
2022-11-03T15:45:50.581Z,14.25
2022-11-03T15:48:20.660Z,14.12
2022-11-03T15:50:54.121Z,14.15
2022-11-03T15:53:25.436Z,14.07
2022-11-03T15:55:54.773Z,13.98
2022-11-03T15:58:24.999Z,13.97
2022-11-03T16:00:55.514Z,13.77
2022-11-03T16:03:26.300Z,13.84
2022-11-03T16:05:56.878Z,13.68
2022-11-03T16:08:27.932Z,13.81
2022-11-03T16:10:58.937Z,13.66
2022-11-03T16:13:28.485Z,13.80
2022-11-03T16:16:02.996Z,13.83
2022-11-03T16:18:33.791Z,13.91
2022-11-03T16:21:04.190Z,13.89
2022-11-03T16:23:35.057Z,13.78
2022-11-03T16:30:32.185Z,13.70
2022-11-03T16:33:02.958Z,13.70
2022-11-03T16:35:33.021Z,13.59
2022-11-03T16:38:03.781Z,13.68
2022-11-03T16:40:39.669Z,13.56
2022-11-03T16:43:21.956Z,13.59
2022-11-03T16:45:54.034Z,13.58
2022-11-03T16:48:36.847Z,13.62
2022-11-03T16:51:10.279Z,13.65
2022-11-03T16:57:20.881Z,13.75
2022-11-03T17:04:10.468Z,13.44
2022-11-03T17:06:54.476Z,13.18
2022-11-03T17:13:38.468Z,13.22
2022-11-03T17:16:36.025Z,13.16
2022-11-03T17:27:01.186Z,13.13
2022-11-03T17:29:58.848Z,13.07
2022-11-03T17:36:38.520Z,13.01
2022-11-03T17:39:35.654Z,12.93
2022-11-03T17:42:17.472Z,12.82
2022-11-03T17:44:50.490Z,12.80
2022-11-03T17:47:23.369Z,12.80
2022-11-03T17:49:54.915Z,12.73
2022-11-03T17:52:29.596Z,12.72
2022-11-03T17:55:01.778Z,12.67
2022-11-03T17:57:31.990Z,12.39
2022-11-03T18:00:05.702Z,12.55
2022-11-03T18:02:41.079Z,12.68
2022-11-03T18:05:27.231Z,12.72
2022-11-03T18:07:57.831Z,12.35
2022-11-03T18:10:31.198Z,12.16
2022-11-03T18:13:18.984Z,12.48
2022-11-03T18:15:52.996Z,12.41
2022-11-03T18:18:29.517Z,12.34
2022-11-03T18:20:59.897Z,12.35
2022-11-03T18:23:33.395Z,12.42
2022-11-03T18:26:05.684Z,12.54
2022-11-03T18:28:35.412Z,12.26
2022-11-03T18:31:30.063Z,12.04
2022-11-03T18:34:02.138Z,12.06
2022-11-03T18:36:34.573Z,12.13
2022-11-03T18:39:20.083Z,12.11
2022-11-03T18:41:55.455Z,11.97
2022-11-03T18:44:28.855Z,11.94
2022-11-03T18:47:01.108Z,11.88
2022-11-03T18:49:34.892Z,11.83
2022-11-03T18:52:08.912Z,11.81
2022-11-03T18:54:39.107Z,11.92
2022-11-03T18:57:10.673Z,11.92
2022-11-03T18:59:42.989Z,11.88
2022-11-03T19:02:18.778Z,12.00
2022-11-03T19:04:51.035Z,12.06
2022-11-03T19:07:26.144Z,11.92
2022-11-03T19:09:56.042Z,11.95
2022-11-03T19:12:26.521Z,12.01
2022-11-03T19:14:57.031Z,12.12
2022-11-03T19:17:32.439Z,12.04
2022-11-03T19:20:04.454Z,11.87
2022-11-03T19:22:34.752Z,11.90
2022-11-03T19:25:06.619Z,11.85
2022-11-03T19:27:41.180Z,11.77
2022-11-03T19:30:15.562Z,11.69
2022-11-03T19:32:52.293Z,11.66
2022-11-03T19:35:24.774Z,11.65
2022-11-03T19:38:03.806Z,11.58
2022-11-03T19:40:37.266Z,11.68
2022-11-03T19:43:11.055Z,11.72
2022-11-03T19:45:42.011Z,11.70
2022-11-03T19:48:24.069Z,11.53
2022-11-03T19:50:55.507Z,11.48
2022-11-03T19:53:28.972Z,11.41
2022-11-03T19:56:03.109Z,11.48
2022-11-03T19:58:33.821Z,11.31
2022-11-03T20:01:08.454Z,11.40
2022-11-03T20:03:40.651Z,11.50
2022-11-03T20:06:16.648Z,11.36
2022-11-03T20:08:51.880Z,11.20
2022-11-03T20:11:22.865Z,11.26
2022-11-03T20:13:56.712Z,11.35
2022-11-03T20:16:28.406Z,11.51
2022-11-03T20:19:01.367Z,11.50
2022-11-03T20:21:34.491Z,11.62
2022-11-03T20:24:11.024Z,11.58
2022-11-03T20:26:41.332Z,11.65
2022-11-03T20:29:14.567Z,11.48
2022-11-03T20:31:48.759Z,11.51
2022-11-03T20:36:54.740Z,11.64
2022-11-03T20:39:57.329Z,11.62
2022-11-03T20:42:30.117Z,11.37
2022-11-03T20:45:01.057Z,11.49
2022-11-03T20:47:33.229Z,11.54
2022-11-03T20:50:07.502Z,11.80
2022-11-03T20:52:38.324Z,11.64
2022-11-03T20:55:17.463Z,11.48
2022-11-03T20:57:47.837Z,11.42
2022-11-03T21:00:19.859Z,11.42
2022-11-03T21:02:49.829Z,11.42
2022-11-03T21:05:25.846Z,11.22
2022-11-03T21:07:56.107Z,11.18
2022-11-03T21:10:25.538Z,10.89
2022-11-03T21:12:56.126Z,11.01
2022-11-03T21:16:03.830Z,11.10
2022-11-03T21:18:52.174Z,11.33
2022-11-03T21:21:24.153Z,11.50
2022-11-03T21:23:55.253Z,11.42
2022-11-03T21:26:24.490Z,11.31
2022-11-03T21:28:56.305Z,11.30
2022-11-03T21:31:26.512Z,11.02
2022-11-03T21:33:57.026Z,11.02
2022-11-03T21:36:39.260Z,10.84
2022-11-03T21:39:15.017Z,10.70
2022-11-03T21:45:26.734Z,10.62
2022-11-03T21:48:34.186Z,10.58
2022-11-03T21:51:20.346Z,10.55
2022-11-03T21:54:08.705Z,10.58
2022-11-03T21:56:56.515Z,10.52
2022-11-03T21:59:44.341Z,10.56
2022-11-03T22:02:33.865Z,10.62
2022-11-03T22:05:26.109Z,10.80
2022-11-03T22:16:28.523Z,10.80
2022-11-03T22:27:07.051Z,10.59
2022-11-03T22:30:20.450Z,10.78
2022-11-03T22:33:15.232Z,10.74
2022-11-03T22:36:17.387Z,10.68
2022-11-03T22:40:03.609Z,10.58
2022-11-03T22:43:07.845Z,10.61
2022-11-03T22:49:12.888Z,10.99
2022-11-03T22:55:56.913Z,11.01
2022-11-03T23:22:10.201Z,10.32
2022-11-03T23:25:47.298Z,10.46
2022-11-03T23:29:44.166Z,10.22
2022-11-03T23:37:23.018Z,10.22
2022-11-03T23:44:31.455Z,10.02
2022-11-03T23:47:34.941Z,10.15
2022-11-03T23:50:47.049Z,10.22
2022-11-03T23:54:30.892Z,10.27
